createdAt,value
2018-07-05T00:01:37.271Z,3.23
2018-07-05T00:04:23.287Z,2.93
2018-07-05T00:07:09.459Z,4.27
2018-07-05T00:09:55.677Z,4.00
2018-07-05T00:12:42.051Z,3.23
2018-07-05T00:15:28.378Z,3.63
2018-07-05T00:18:14.706Z,6.17
2018-07-05T00:21:01.017Z,7.00
2018-07-05T00:23:47.112Z,3.80
2018-07-05T00:26:33.727Z,4.63
2018-07-05T00:29:19.902Z,5.60
2018-07-05T00:32:06.063Z,6.00
2018-07-05T00:34:52.239Z,3.93
2018-07-05T00:37:38.374Z,4.07
2018-07-05T00:40:24.610Z,5.57
2018-07-05T00:43:10.899Z,5.47
2018-07-05T00:45:57.106Z,7.53
2018-07-05T00:51:32.393Z,6.70
2018-07-05T00:54:18.528Z,9.37
2018-07-05T00:57:04.511Z,5.03
2018-07-05T00:59:50.726Z,7.10
2018-07-05T01:02:37.099Z,5.27
2018-07-05T01:05:23.518Z,7.53
2018-07-05T01:08:09.814Z,9.57
2018-07-05T01:10:56.204Z,5.80
2018-07-05T01:13:42.474Z,9.43
2018-07-05T01:16:44.959Z,7.80
2018-07-05T01:19:31.022Z,7.23
2018-07-05T01:22:17.238Z,6.80
2018-07-05T01:24:57.467Z,7.83
2018-07-05T01:27:43.594Z,8.90
2018-07-05T01:30:29.986Z,10.90
2018-07-05T01:33:16.186Z,7.87
2018-07-05T01:36:02.430Z,6.57
2018-07-05T01:38:48.702Z,7.20
2018-07-05T01:41:34.954Z,7.20
2018-07-05T01:44:21.213Z,8.87
2018-07-05T01:47:07.406Z,8.33
2018-07-05T01:49:53.450Z,14.20
2018-07-05T01:52:40.060Z,11.77
2018-07-05T01:55:26.260Z,8.43
2018-07-05T01:58:12.455Z,12.77
2018-07-05T02:00:58.551Z,7.73
2018-07-05T02:03:44.931Z,5.00
2018-07-05T02:06:31.099Z,7.47
2018-07-05T02:09:17.271Z,7.47
2018-07-05T02:12:03.626Z,9.73
2018-07-05T02:14:49.799Z,10.87
2018-07-05T02:17:35.894Z,8.43
2018-07-05T02:20:22.042Z,8.53
2018-07-05T02:23:08.174Z,9.27
2018-07-05T02:25:54.469Z,9.70
2018-07-05T02:28:40.790Z,9.00
2018-07-05T02:31:27.087Z,8.77
2018-07-05T02:34:13.421Z,8.10
2018-07-05T02:36:59.718Z,9.20
2018-07-05T02:39:49.190Z,10.27
2018-07-05T02:42:35.472Z,7.77
2018-07-05T02:45:21.682Z,8.67
2018-07-05T02:48:07.890Z,12.33
2018-07-05T02:50:54.198Z,11.13
2018-07-05T02:54:17.389Z,13.87
2018-07-05T02:57:03.639Z,10.00
2018-07-05T02:59:49.758Z,14.53
2018-07-05T03:02:35.910Z,11.60
2018-07-05T03:05:22.102Z,15.77
2018-07-05T03:08:08.370Z,11.03
2018-07-05T03:10:54.605Z,10.57
2018-07-05T03:13:41.359Z,12.73
2018-07-05T03:16:27.816Z,11.17
2018-07-05T03:19:14.151Z,12.97
2018-07-05T03:22:01.522Z,14.70
2018-07-05T03:24:47.648Z,11.83
2018-07-05T03:27:33.992Z,13.30
2018-07-05T03:30:20.218Z,9.73
2018-07-05T03:33:06.841Z,12.23
2018-07-05T03:35:53.119Z,12.87
2018-07-05T03:38:39.455Z,12.47
2018-07-05T03:41:25.606Z,12.83
2018-07-05T03:44:11.862Z,13.73
2018-07-05T03:46:58.024Z,10.47
2018-07-05T03:49:44.262Z,12.27
2018-07-05T03:52:24.382Z,10.30
2018-07-05T03:55:10.682Z,11.23
2018-07-05T03:57:56.870Z,12.63
2018-07-05T04:00:43.114Z,12.67
2018-07-05T04:03:29.378Z,10.67
2018-07-05T04:06:15.530Z,13.40
2018-07-05T04:09:01.968Z,14.30
2018-07-05T04:11:48.292Z,12.43
2018-07-05T04:17:54.240Z,11.30
2018-07-05T04:20:40.565Z,11.33
2018-07-05T04:23:26.687Z,10.77
2018-07-05T04:26:13.133Z,11.37
2018-07-05T04:28:59.368Z,12.13
2018-07-05T04:31:45.438Z,13.07
2018-07-05T04:34:31.629Z,16.43
2018-07-05T04:37:17.649Z,13.77
2018-07-05T04:40:03.939Z,13.90
2018-07-05T04:42:50.115Z,9.43
2018-07-05T04:45:36.383Z,9.03
2018-07-05T04:48:22.558Z,10.43
2018-07-05T04:51:08.774Z,12.37
2018-07-05T04:53:55.097Z,10.97
2018-07-05T04:56:42.050Z,11.97
2018-07-05T04:59:28.162Z,12.37
2018-07-05T05:02:14.506Z,10.93
2018-07-05T05:05:00.726Z,10.63
2018-07-05T05:07:46.272Z,10.20
2018-07-05T05:10:32.530Z,11.53
2018-07-05T05:13:18.974Z,12.53
2018-07-05T05:16:01.656Z,9.50
2018-07-05T05:18:48.208Z,8.97
2018-07-05T05:21:34.794Z,8.30
2018-07-05T05:24:15.534Z,10.10
2018-07-05T05:27:01.857Z,13.23
2018-07-05T05:29:48.052Z,9.47
2018-07-05T05:32:34.422Z,11.23
2018-07-05T05:35:21.400Z,7.03
2018-07-05T05:38:07.626Z,9.20
2018-07-05T05:40:54.223Z,6.90
2018-07-05T05:43:40.350Z,13.70
2018-07-05T05:46:27.085Z,9.90
2018-07-05T05:49:13.438Z,8.53
2018-07-05T05:52:08.863Z,13.53
2018-07-05T05:54:55.454Z,8.17
2018-07-05T05:57:41.839Z,12.30
2018-07-05T06:00:28.081Z,11.43
2018-07-05T06:03:14.596Z,11.47
2018-07-05T06:06:01.074Z,8.47
2018-07-05T06:08:47.261Z,7.90
2018-07-05T06:11:34.170Z,9.83
2018-07-05T06:14:20.522Z,11.60
2018-07-05T06:17:07.064Z,8.00
2018-07-05T06:19:53.549Z,11.27
2018-07-05T06:22:39.973Z,10.23
2018-07-05T06:25:26.281Z,7.60
2018-07-05T06:28:12.591Z,7.77
2018-07-05T06:30:58.935Z,8.90
2018-07-05T06:33:45.262Z,15.13
2018-07-05T06:36:31.515Z,10.10
2018-07-05T06:39:18.018Z,12.97
2018-07-05T06:42:04.242Z,7.87
2018-07-05T06:44:50.485Z,9.10
2018-07-05T06:47:36.659Z,8.13
2018-07-05T06:50:23.085Z,7.43
2018-07-05T06:53:09.335Z,8.10
2018-07-05T06:55:55.859Z,8.30
2018-07-05T06:58:42.261Z,7.47
2018-07-05T07:01:28.686Z,6.70
2018-07-05T07:04:14.962Z,6.73
2018-07-05T07:07:01.221Z,8.30
2018-07-05T07:09:47.403Z,8.43
2018-07-05T07:12:34.022Z,8.33
2018-07-05T07:15:20.173Z,11.27
2018-07-05T07:18:06.513Z,6.90
2018-07-05T07:20:52.845Z,9.03
2018-07-05T07:23:38.967Z,9.27
2018-07-05T07:26:25.272Z,6.83
2018-07-05T07:29:12.605Z,9.90
2018-07-05T07:31:52.891Z,5.53
2018-07-05T07:34:39.020Z,7.57
2018-07-05T07:37:25.327Z,10.80
2018-07-05T07:40:11.551Z,11.53
2018-07-05T07:42:45.339Z,7.40
2018-07-05T07:45:13.011Z,11.60
2018-07-05T07:47:40.768Z,7.90
2018-07-05T07:50:08.874Z,8.20
2018-07-05T07:52:36.546Z,9.73
2018-07-05T07:55:04.239Z,6.23
2018-07-05T07:57:31.910Z,9.50
2018-07-05T07:59:59.582Z,7.00
2018-07-05T08:02:27.269Z,3.90
2018-07-05T08:04:54.939Z,3.07
2018-07-05T08:07:22.632Z,2.73
2018-07-05T08:09:50.310Z,4.50
2018-07-05T08:12:18.240Z,2.50
2018-07-05T08:14:46.326Z,7.43
2018-07-05T08:17:13.994Z,2.80
2018-07-05T08:19:41.765Z,1.87
2018-07-05T08:22:09.638Z,3.73
2018-07-05T08:24:37.353Z,2.17
2018-07-05T08:27:05.364Z,2.13
2018-07-05T08:29:33.042Z,1.77
2018-07-05T08:32:00.731Z,2.57
2018-07-05T08:34:28.430Z,3.03
2018-07-05T08:36:56.104Z,2.90
2018-07-05T08:39:24.025Z,2.40
2018-07-05T08:41:51.694Z,2.70
2018-07-05T08:44:19.375Z,3.03
2018-07-05T08:46:47.042Z,1.57
2018-07-05T08:49:14.730Z,1.80
2018-07-05T08:51:42.654Z,3.20
2018-07-05T08:54:10.330Z,1.57
2018-07-05T08:56:38.018Z,2.50
2018-07-05T08:59:05.723Z,2.03
2018-07-05T09:01:33.829Z,2.10
2018-07-05T09:04:01.491Z,2.40
2018-07-05T09:06:29.154Z,3.67
2018-07-05T09:08:56.834Z,3.10
2018-07-05T09:11:24.542Z,1.23
2018-07-05T09:13:52.239Z,1.00
2018-07-05T09:16:19.915Z,1.30
2018-07-05T09:18:47.868Z,1.40
2018-07-05T09:21:15.497Z,2.27
2018-07-05T09:23:43.446Z,1.50
2018-07-05T09:26:11.102Z,1.20
2018-07-05T09:28:38.855Z,2.57
2018-07-05T09:31:06.579Z,1.50
2018-07-05T09:33:34.509Z,1.20
2018-07-05T09:36:02.190Z,1.90
2018-07-05T09:38:29.851Z,1.17
2018-07-05T09:40:57.524Z,1.27
2018-07-05T09:43:25.186Z,1.50
2018-07-05T09:45:52.862Z,1.00
2018-07-05T09:48:20.541Z,2.30
2018-07-05T09:50:48.210Z,1.90
2018-07-05T09:53:16.438Z,1.37
2018-07-05T09:55:44.147Z,1.63
2018-07-05T09:58:11.802Z,1.47
2018-07-05T10:00:44.746Z,1.27
2018-07-05T10:03:12.411Z,0.93
2018-07-05T10:05:40.114Z,4.00
2018-07-05T10:08:07.775Z,1.00
2018-07-05T10:10:35.451Z,1.83
2018-07-05T10:13:03.221Z,1.30
2018-07-05T10:15:30.794Z,0.90
2018-07-05T10:17:58.780Z,2.13
2018-07-05T10:20:26.358Z,1.50
2018-07-05T10:22:54.321Z,1.30
2018-07-05T10:25:21.953Z,1.37
2018-07-05T10:27:49.619Z,1.80
2018-07-05T10:30:29.636Z,2.13
2018-07-05T10:33:09.958Z,0.90
2018-07-05T10:35:43.843Z,1.27
2018-07-05T10:38:11.511Z,1.43
2018-07-05T10:40:51.423Z,1.17
2018-07-05T10:43:37.758Z,1.10
2018-07-05T10:46:24.060Z,1.37
2018-07-05T10:49:10.120Z,1.93
2018-07-05T10:51:56.285Z,1.60
2018-07-05T10:54:42.446Z,1.00
2018-07-05T10:57:28.750Z,1.07
2018-07-05T11:00:14.771Z,1.37
2018-07-05T11:03:00.902Z,1.33
2018-07-05T11:05:47.074Z,2.03
2018-07-05T11:08:33.434Z,1.20
2018-07-05T11:11:19.656Z,1.27
2018-07-05T11:14:05.853Z,1.20
2018-07-05T11:16:52.044Z,1.30
2018-07-05T11:19:38.249Z,1.03
2018-07-05T11:22:25.390Z,1.23
2018-07-05T11:25:11.639Z,1.17
2018-07-05T11:27:57.696Z,1.43
2018-07-05T11:30:43.722Z,4.20
2018-07-05T11:33:30.028Z,1.87
2018-07-05T11:36:16.662Z,1.87
2018-07-05T11:39:03.313Z,3.63
2018-07-05T11:41:49.628Z,1.67
2018-07-05T11:44:35.787Z,1.57
2018-07-05T11:47:22.096Z,1.67
2018-07-05T11:50:08.682Z,1.53
2018-07-05T11:52:54.726Z,3.53
2018-07-05T11:55:40.830Z,1.63
2018-07-05T11:58:27.035Z,1.40
2018-07-05T12:01:13.254Z,1.23
2018-07-05T12:03:59.368Z,2.03
2018-07-05T12:06:45.653Z,2.03
2018-07-05T12:09:31.818Z,1.50
2018-07-05T12:12:17.954Z,1.90
2018-07-05T12:15:04.059Z,1.60
2018-07-05T12:17:50.322Z,2.63
2018-07-05T12:20:36.953Z,1.50
2018-07-05T12:23:22.997Z,1.70
2018-07-05T12:26:09.310Z,1.57
2018-07-05T12:28:56.261Z,1.50
2018-07-05T12:31:42.408Z,1.47
2018-07-05T12:34:28.659Z,1.63
2018-07-05T12:37:14.979Z,1.63
2018-07-05T12:40:01.095Z,1.40
2018-07-05T12:42:47.765Z,1.27
2018-07-05T12:45:33.962Z,1.37
2018-07-05T12:48:20.295Z,1.90
2018-07-05T12:51:06.410Z,1.13
2018-07-05T12:53:52.596Z,1.57
2018-07-05T12:56:38.702Z,1.80
2018-07-05T12:59:24.729Z,1.20
2018-07-05T13:02:11.103Z,1.30
2018-07-05T13:04:57.498Z,1.30
2018-07-05T13:07:43.702Z,1.40
2018-07-05T13:10:29.874Z,1.47
2018-07-05T13:13:16.171Z,1.30
2018-07-05T13:16:02.431Z,1.43
2018-07-05T13:18:48.803Z,1.23
2018-07-05T13:21:35.122Z,1.20
2018-07-05T13:24:21.327Z,1.13
2018-07-05T13:27:07.446Z,2.40
2018-07-05T13:29:53.593Z,3.40
2018-07-05T13:32:39.945Z,0.90
2018-07-05T13:35:26.246Z,1.47
2018-07-05T13:38:12.583Z,1.70
2018-07-05T13:40:58.730Z,1.73
2018-07-05T13:43:44.866Z,3.17
2018-07-05T13:46:31.155Z,1.10
2018-07-05T13:49:17.416Z,1.03
2018-07-05T13:52:03.543Z,1.23
2018-07-05T13:54:49.827Z,1.30
2018-07-05T13:57:36.376Z,1.40
2018-07-05T14:00:22.833Z,1.33
2018-07-05T14:03:09.099Z,0.70
2018-07-05T14:05:55.638Z,1.23
2018-07-05T14:08:42.626Z,2.20
2018-07-05T14:11:28.997Z,2.10
2018-07-05T14:14:16.147Z,2.13
2018-07-05T14:17:02.649Z,2.80
2018-07-05T14:19:48.862Z,0.70
2018-07-05T14:22:35.210Z,1.97
2018-07-05T14:25:21.394Z,0.87
2018-07-05T14:28:07.549Z,0.90
2018-07-05T14:30:53.891Z,2.97
2018-07-05T14:33:40.483Z,1.53
2018-07-05T14:36:26.610Z,1.90
2018-07-05T14:39:12.720Z,1.50
2018-07-05T14:41:58.853Z,1.57
2018-07-05T14:44:45.052Z,1.70
2018-07-05T14:47:31.130Z,1.50
2018-07-05T14:50:17.190Z,0.97
2018-07-05T14:53:03.239Z,1.43
2018-07-05T14:55:49.338Z,1.27
2018-07-05T14:58:35.599Z,1.07
2018-07-05T15:01:21.766Z,0.73
2018-07-05T15:04:08.162Z,0.60
2018-07-05T15:06:54.377Z,0.90
2018-07-05T15:09:40.553Z,0.70
2018-07-05T15:12:20.694Z,1.07
2018-07-05T15:15:06.878Z,0.70
2018-07-05T15:17:53.210Z,0.73
2018-07-05T15:20:39.298Z,0.97
2018-07-05T15:23:25.698Z,1.63
2018-07-05T15:26:12.039Z,0.93
2018-07-05T15:28:58.398Z,0.80
2018-07-05T15:31:44.511Z,0.60
2018-07-05T15:34:30.974Z,0.90
2018-07-05T15:37:11.397Z,0.70
2018-07-05T15:39:57.597Z,0.90
2018-07-05T15:42:43.860Z,1.10
2018-07-05T15:45:30.159Z,0.90
2018-07-05T15:48:16.246Z,1.30
2018-07-05T15:51:02.458Z,2.77
2018-07-05T15:53:48.654Z,1.00
2018-07-05T15:56:34.856Z,0.77
2018-07-05T15:59:21.090Z,1.03
2018-07-05T16:02:07.274Z,1.67
2018-07-05T16:04:53.818Z,0.90
2018-07-05T16:07:39.995Z,1.33
2018-07-05T16:10:26.227Z,2.10
2018-07-05T16:13:12.365Z,1.47
2018-07-05T16:15:58.513Z,0.80
2018-07-05T16:18:44.890Z,0.77
2018-07-05T16:21:31.078Z,0.70
2018-07-05T16:24:17.319Z,1.27
2018-07-05T16:27:03.923Z,0.80
2018-07-05T16:29:50.442Z,1.73
2018-07-05T16:32:37.630Z,0.60
2018-07-05T16:35:23.843Z,1.10
2018-07-05T16:38:10.151Z,1.10
2018-07-05T16:40:56.421Z,0.80
2018-07-05T16:43:42.656Z,0.93
2018-07-05T16:46:28.865Z,0.77
2018-07-05T16:49:15.008Z,0.70
2018-07-05T16:52:01.095Z,0.70
2018-07-05T16:54:47.302Z,0.70
2018-07-05T16:57:33.545Z,1.40
2018-07-05T17:00:19.890Z,1.93
2018-07-05T17:03:06.192Z,0.80
2018-07-05T17:05:52.285Z,0.80
2018-07-05T17:08:38.644Z,1.00
2018-07-05T17:11:25.111Z,1.27
2018-07-05T17:14:11.456Z,0.70
2018-07-05T17:16:57.753Z,1.67
2018-07-05T17:19:44.187Z,1.63
2018-07-05T17:22:24.614Z,0.70
2018-07-05T17:25:10.882Z,0.67
2018-07-05T17:27:57.176Z,0.57
2018-07-05T17:30:43.496Z,0.70
2018-07-05T17:33:29.682Z,1.00
2018-07-05T17:36:15.714Z,0.50
2018-07-05T17:39:01.818Z,0.70
2018-07-05T17:41:48.033Z,0.60
2018-07-05T17:44:34.303Z,1.27
2018-07-05T17:47:20.785Z,0.80
2018-07-05T17:50:07.066Z,0.97
2018-07-05T17:52:53.345Z,1.07
2018-07-05T17:55:39.442Z,0.77
2018-07-05T17:58:25.602Z,1.00
2018-07-05T18:01:11.790Z,1.70
2018-07-05T18:03:58.070Z,1.40
2018-07-05T18:06:44.154Z,0.70
2018-07-05T18:09:30.553Z,1.20
2018-07-05T18:12:16.802Z,0.70
2018-07-05T18:15:03.026Z,0.40
2018-07-05T18:17:49.302Z,0.67
2018-07-05T18:20:35.418Z,1.13
2018-07-05T18:23:21.772Z,0.60
2018-07-05T18:26:07.809Z,0.73
2018-07-05T18:28:53.870Z,0.83
2018-07-05T18:31:40.231Z,0.90
2018-07-05T18:34:26.475Z,0.53
2018-07-05T18:37:12.932Z,0.63
2018-07-05T18:39:59.154Z,0.80
2018-07-05T18:42:45.572Z,0.73
2018-07-05T18:45:31.856Z,0.60
2018-07-05T18:48:18.174Z,0.83
2018-07-05T18:51:04.691Z,0.70
2018-07-05T18:53:50.845Z,0.73
2018-07-05T18:56:37.011Z,0.80
2018-07-05T18:59:23.196Z,0.60
2018-07-05T19:02:03.382Z,0.50
2018-07-05T19:04:49.462Z,1.40
2018-07-05T19:07:35.675Z,0.60
2018-07-05T19:10:21.770Z,1.27
2018-07-05T19:13:07.946Z,0.60
2018-07-05T19:15:54.160Z,0.70
2018-07-05T19:18:40.501Z,0.70
2018-07-05T19:21:26.680Z,0.80
2018-07-05T19:24:12.871Z,0.87
2018-07-05T19:26:59.227Z,1.30
2018-07-05T19:29:45.444Z,0.80
2018-07-05T19:32:32.035Z,0.50
2018-07-05T19:35:18.263Z,0.60
2018-07-05T19:38:04.475Z,1.20
2018-07-05T19:40:50.750Z,0.70
2018-07-05T19:43:36.914Z,0.47
2018-07-05T19:46:23.102Z,0.73
2018-07-05T19:49:09.422Z,2.53
2018-07-05T19:51:55.763Z,1.57
2018-07-05T19:54:42.303Z,0.97
2018-07-05T19:57:28.346Z,0.80
2018-07-05T20:00:14.598Z,0.70
2018-07-05T20:03:01.076Z,0.50
2018-07-05T20:05:47.319Z,0.93
2018-07-05T20:08:33.358Z,0.70
2018-07-05T20:11:19.707Z,0.87
2018-07-05T20:14:08.457Z,1.33
2018-07-05T20:16:54.573Z,2.37
2018-07-05T20:19:40.660Z,0.50
2018-07-05T20:22:27.043Z,0.60
2018-07-05T20:25:13.301Z,0.70
2018-07-05T20:27:59.766Z,0.60
2018-07-05T20:30:45.873Z,0.70
2018-07-05T20:33:32.016Z,2.97
2018-07-05T20:36:18.218Z,0.70
2018-07-05T20:39:05.431Z,0.70
2018-07-05T20:41:51.657Z,0.83
2018-07-05T20:44:37.698Z,0.70
2018-07-05T20:47:24.036Z,0.60
2018-07-05T20:50:10.119Z,1.07
2018-07-05T20:52:56.372Z,1.17
2018-07-05T20:55:42.649Z,1.07
2018-07-05T20:58:28.690Z,0.60
2018-07-05T21:01:14.830Z,2.47
2018-07-05T21:04:01.112Z,0.70
2018-07-05T21:06:47.448Z,0.50
2018-07-05T21:09:33.651Z,0.77
2018-07-05T21:12:19.874Z,1.93
2018-07-05T21:15:06.006Z,0.60
2018-07-05T21:17:52.181Z,0.70
2018-07-05T21:20:38.338Z,0.67
2018-07-05T21:23:24.510Z,0.70
2018-07-05T21:26:10.737Z,0.43
2018-07-05T21:28:57.111Z,0.80
2018-07-05T21:31:43.221Z,0.70
2018-07-05T21:34:29.376Z,0.80
2018-07-05T21:37:15.558Z,0.70
2018-07-05T21:40:01.691Z,1.47
2018-07-05T21:42:47.746Z,0.70
2018-07-05T21:45:33.795Z,0.90
2018-07-05T21:48:20.090Z,0.80
2018-07-05T21:51:06.230Z,0.60
2018-07-05T21:53:52.294Z,0.70
2018-07-05T21:56:38.445Z,0.80
2018-07-05T21:59:24.655Z,0.90
2018-07-05T22:02:10.646Z,0.63
2018-07-05T22:04:57.157Z,0.70
2018-07-05T22:07:43.759Z,0.70
2018-07-05T22:10:30.155Z,0.80
2018-07-05T22:13:16.390Z,1.03
2018-07-05T22:16:02.627Z,0.60
2018-07-05T22:18:54.366Z,0.80
2018-07-05T22:21:46.143Z,2.37
2018-07-05T22:25:35.964Z,0.70
2018-07-05T22:28:27.793Z,0.80
2018-07-05T22:31:13.777Z,0.60
2018-07-05T22:33:53.833Z,1.00
2018-07-05T22:36:39.977Z,1.07
2018-07-05T22:39:26.315Z,0.60
2018-07-05T22:42:12.385Z,0.80
2018-07-05T22:44:58.425Z,0.90
2018-07-05T22:47:44.452Z,1.20
2018-07-05T22:50:30.610Z,0.80
2018-07-05T22:53:16.704Z,1.60
2018-07-05T22:56:03.158Z,0.73
2018-07-05T22:58:43.442Z,0.80
2018-07-05T23:01:29.583Z,0.80
2018-07-05T23:04:15.748Z,1.33
2018-07-05T23:07:01.948Z,0.73
2018-07-05T23:09:48.014Z,1.23
2018-07-05T23:12:34.224Z,1.00
2018-07-05T23:15:20.330Z,1.10
2018-07-05T23:18:06.418Z,1.80
2018-07-05T23:20:52.638Z,1.23
2018-07-05T23:23:38.966Z,0.83
2018-07-05T23:26:25.227Z,0.77
2018-07-05T23:29:11.503Z,1.10
2018-07-05T23:31:51.685Z,0.60
2018-07-05T23:34:37.851Z,0.90
2018-07-05T23:37:23.963Z,0.70
2018-07-05T23:40:10.027Z,1.70
2018-07-05T23:42:56.179Z,0.70
2018-07-05T23:45:42.364Z,0.70
2018-07-05T23:48:28.465Z,1.13
2018-07-05T23:51:14.682Z,1.00
2018-07-05T23:54:00.811Z,0.93
2018-07-05T23:56:47.652Z,1.50
2018-07-05T23:59:34.191Z,0.80
